Time;durP1;ratioP1;P1;durP2;ratioP2;P2;SDS_P1;SDS_P2;PMS_P1;PMS_P2;Temp;Humidity;BMP_temperature;BMP_pressure;BME280_temperature;BME280_humidity;BME280_pressure;Samples;Min_cycle;Max_cycle;Signal;HPM_P1;HPM_P2
2021/12/21 00:00:47;;;;;;;4.20;2.38;;;16.50;45.90;;;;;;5104340;27;45260;-73
2021/12/21 00:03:15;;;;;;;4.90;2.00;;;16.50;45.00;;;;;;5089522;27;45241;-73
2021/12/21 00:05:42;;;;;;;4.03;2.03;;;16.50;45.40;;;;;;5088833;27;47408;-73
2021/12/21 00:08:11;;;;;;;3.30;1.95;;;16.50;45.10;;;;;;5088612;27;45632;-73
2021/12/21 00:10:40;;;;;;;3.65;2.10;;;16.50;45.90;;;;;;5105766;27;45355;-73
2021/12/21 00:13:10;;;;;;;3.80;2.30;;;16.50;45.70;;;;;;5098838;27;45411;-73
2021/12/21 00:15:52;;;;;;;3.08;2.08;;;16.50;46.00;;;;;;5087753;27;45498;-73
2021/12/21 00:18:32;;;;;;;3.20;1.92;;;16.50;45.00;;;;;;5107443;27;45314;-73
2021/12/21 00:21:05;;;;;;;5.00;2.20;;;16.50;44.80;;;;;;5102106;27;45307;-73
2021/12/21 00:23:35;;;;;;;3.63;2.28;;;16.50;44.40;;;;;;5095772;27;45507;-73
2021/12/21 00:26:05;;;;;;;3.00;1.80;;;16.50;45.10;;;;;;5088490;27;48288;-73
2021/12/21 00:28:37;;;;;;;3.78;2.10;;;16.50;45.50;;;;;;5092774;27;45357;-73
2021/12/21 00:31:04;;;;;;;5.00;2.03;;;16.50;44.50;;;;;;5100956;27;45187;-73
2021/12/21 00:33:32;;;;;;;3.47;2.00;;;16.50;45.20;;;;;;5108618;27;45203;-73
2021/12/21 00:35:59;;;;;;;2.85;1.83;;;16.50;44.80;;;;;;5090775;27;46713;-73
2021/12/21 00:38:26;;;;;;;3.13;1.80;;;16.50;45.70;;;;;;5088046;27;45215;-73
2021/12/21 00:40:53;;;;;;;4.25;1.85;;;16.50;45.50;;;;;;5100621;27;45175;-73
2021/12/21 00:43:20;;;;;;;3.88;1.90;;;16.50;44.30;;;;;;5090361;27;46280;-73
2021/12/21 00:45:47;;;;;;;3.35;1.92;;;16.50;44.40;;;;;;5101806;27;47492;-73
2021/12/21 00:48:15;;;;;;;3.92;1.73;;;16.50;45.10;;;;;;5104085;27;45267;-73
2021/12/21 00:50:43;;;;;;;2.20;1.85;;;16.50;44.60;;;;;;5087586;27;45207;-73
2021/12/21 00:53:11;;;;;;;3.70;1.98;;;16.50;44.30;;;;;;5088093;27;45168;-73
2021/12/21 00:55:38;;;;;;;4.05;2.22;;;16.50;44.00;;;;;;5088442;27;46366;-73
2021/12/21 00:58:05;;;;;;;3.45;1.95;;;16.50;44.10;;;;;;5088027;27;45274;-73
2021/12/21 01:00:32;;;;;;;3.58;1.88;;;16.50;44.60;;;;;;5092997;27;45367;-73
2021/12/21 01:03:05;;;;;;;4.28;2.13;;;16.50;44.00;;;;;;5089494;27;45294;-73
2021/12/21 01:05:39;;;;;;;4.15;2.08;;;16.50;44.20;;;;;;5087323;27;47808;-73
2021/12/21 01:08:10;;;;;;;2.40;1.73;;;16.50;44.40;;;;;;5092213;27;45466;-73
2021/12/21 01:16:21;;;;;;;3.45;1.73;;;16.50;44.00;;;;;;5088795;27;45346;-73
2021/12/21 01:19:06;;;;;;;3.08;1.80;;;16.50;44.70;;;;;;5087748;28;45223;-73
2021/12/21 01:21:38;;;;;;;3.70;1.55;;;16.50;44.00;;;;;;5087694;28;45244;-73
2021/12/21 01:27:10;;;;;;;2.88;1.90;;;16.50;45.20;;;;;;5089382;27;45464;-73
2021/12/21 01:29:46;;;;;;;2.30;1.60;;;16.50;45.50;;;;;;5096587;27;45410;-73
2021/12/21 01:32:20;;;;;;;2.63;1.80;;;16.50;45.90;;;;;;5099400;27;45101;-73
2021/12/21 01:34:57;;;;;;;3.22;1.88;;;16.50;45.80;;;;;;5088771;27;45236;-73
2021/12/21 01:37:30;;;;;;;3.08;1.92;;;16.50;45.00;;;;;;5095397;27;47314;-73
2021/12/21 01:40:15;;;;;;;3.28;1.73;;;16.50;44.80;;;;;;5087583;27;45261;-73
2021/12/21 01:43:04;;;;;;;3.10;1.80;;;16.50;45.10;;;;;;5093178;27;45567;-73
2021/12/21 01:51:00;;;;;;;4.65;1.98;;;16.50;44.00;;;;;;5090750;27;46277;-73
2021/12/21 01:53:27;;;;;;;4.05;1.88;;;16.50;44.50;;;;;;5107455;27;45145;-73
2021/12/21 01:55:55;;;;;;;3.15;1.70;;;16.40;43.70;;;;;;5104227;27;45328;-73
2021/12/21 01:58:22;;;;;;;3.72;1.95;;;16.40;43.40;;;;;;5096630;27;46206;-73
2021/12/21 02:00:49;;;;;;;3.72;2.10;;;16.40;43.10;;;;;;5099857;27;45394;-73
2021/12/21 02:03:16;;;;;;;4.22;2.13;;;16.40;43.00;;;;;;5106485;27;45276;-73
2021/12/21 02:05:43;;;;;;;3.03;1.83;;;16.40;42.80;;;;;;5102794;27;45451;-73
2021/12/21 02:08:10;;;;;;;3.50;1.90;;;16.40;42.60;;;;;;5092119;27;46621;-73
2021/12/21 02:10:37;;;;;;;2.97;1.90;;;16.40;42.80;;;;;;5116454;27;45881;-73
2021/12/21 02:13:05;;;;;;;4.53;2.28;;;16.40;44.20;;;;;;5102536;27;45737;-73
2021/12/21 02:15:32;;;;;;;4.40;2.20;;;16.40;44.50;;;;;;5103470;27;45282;-73
2021/12/21 02:20:55;;;;;;;3.08;1.77;;;16.40;44.80;;;;;;5086766;27;45299;-73
2021/12/21 02:23:27;;;;;;;2.55;1.70;;;16.40;44.20;;;;;;5086569;27;45355;-73
2021/12/21 02:31:28;;;;;;;5.57;1.90;;;16.40;43.70;;;;;;5082009;27;45529;-73
2021/12/21 02:33:56;;;;;;;4.65;2.17;;;16.40;43.50;;;;;;5095648;27;45344;-73
2021/12/21 02:36:24;;;;;;;2.95;1.80;;;16.40;43.40;;;;;;5099560;27;45452;-73
2021/12/21 02:38:51;;;;;;;3.53;1.80;;;16.40;44.00;;;;;;5091042;27;45277;-73
2021/12/21 02:41:17;;;;;;;3.42;2.05;;;16.40;43.00;;;;;;5089424;27;45845;-73
2021/12/21 02:43:44;;;;;;;3.08;1.70;;;16.40;42.90;;;;;;5092480;27;45541;-73
2021/12/21 02:46:11;;;;;;;3.53;1.90;;;16.40;42.40;;;;;;5109081;27;45496;-73
2021/12/21 02:48:38;;;;;;;4.25;2.33;;;16.40;42.80;;;;;;5090818;27;46263;-73
2021/12/21 02:51:06;;;;;;;2.88;1.98;;;16.40;43.00;;;;;;5089682;27;45386;-73
2021/12/21 02:53:34;;;;;;;4.22;2.17;;;16.40;42.50;;;;;;5089573;27;45570;-73
2021/12/21 02:56:01;;;;;;;3.65;1.70;;;16.40;42.50;;;;;;5090031;27;45433;-73
2021/12/21 02:58:28;;;;;;;4.10;2.10;;;16.40;42.20;;;;;;5104905;27;48114;-73
2021/12/21 03:00:56;;;;;;;2.78;1.90;;;16.40;42.20;;;;;;5088540;27;45573;-73
2021/12/21 03:03:26;;;;;;;3.30;2.03;;;16.40;42.20;;;;;;5103554;27;45386;-73
2021/12/21 03:05:56;;;;;;;4.38;2.28;;;16.30;42.40;;;;;;5095644;27;45637;-73
2021/12/21 03:08:25;;;;;;;4.47;2.03;;;16.40;42.90;;;;;;5102818;27;46604;-73
2021/12/21 03:11:06;;;;;;;2.38;1.73;;;16.40;42.50;;;;;;5108335;27;45207;-73
2021/12/21 03:14:03;;;;;;;3.85;2.30;;;16.40;42.60;;;;;;5093020;27;45259;-73
2021/12/21 03:16:31;;;;;;;4.70;2.13;;;16.40;42.10;;;;;;5097873;27;45267;-73
2021/12/21 03:18:59;;;;;;;3.78;2.20;;;16.40;42.50;;;;;;5089011;28;47828;-73
2021/12/21 03:21:26;;;;;;;3.95;2.13;;;16.40;41.90;;;;;;5088779;28;45469;-73
2021/12/21 03:23:53;;;;;;;3.15;2.00;;;16.40;42.60;;;;;;5089106;28;45281;-73
2021/12/21 03:26:21;;;;;;;5.03;2.10;;;16.40;42.70;;;;;;5090566;27;45357;-73
2021/12/21 03:28:48;;;;;;;4.68;2.17;;;16.40;42.20;;;;;;5088953;27;46305;-73
2021/12/21 03:31:15;;;;;;;4.57;2.22;;;16.40;42.30;;;;;;5088723;27;45333;-73
2021/12/21 03:33:42;;;;;;;4.28;2.22;;;16.40;42.10;;;;;;5088673;27;45244;-73
2021/12/21 03:36:09;;;;;;;3.50;1.98;;;16.40;42.00;;;;;;5093873;27;45358;-73
2021/12/21 03:38:37;;;;;;;3.47;2.28;;;16.40;42.00;;;;;;5100064;27;46323;-73
2021/12/21 03:41:09;;;;;;;2.75;1.48;;;16.40;42.20;;;;;;5089607;27;46072;-74
2021/12/21 03:43:37;;;;;;;3.75;2.00;;;16.40;43.00;;;;;;5094328;27;45369;-74
2021/12/21 03:46:09;;;;;;;5.68;2.00;;;16.40;43.70;;;;;;5094786;27;45139;-74
2021/12/21 03:48:37;;;;;;;3.42;1.80;;;16.40;44.00;;;;;;5097245;27;48483;-73
2021/12/21 03:51:04;;;;;;;3.33;1.90;;;16.40;43.60;;;;;;5088795;27;45235;-73
2021/12/21 03:53:31;;;;;;;3.33;2.17;;;16.40;43.30;;;;;;5088053;27;45184;-73
2021/12/21 03:58:40;;;;;;;3.85;1.98;;;16.40;42.40;;;;;;5089008;27;46173;-73
2021/12/21 04:01:07;;;;;;;5.78;2.53;;;16.40;42.50;;;;;;5103960;27;45445;-73
2021/12/21 04:03:34;;;;;;;3.35;1.80;;;16.40;42.40;;;;;;5088477;27;45167;-73
2021/12/21 04:06:01;;;;;;;3.40;2.22;;;16.40;42.00;;;;;;5089765;27;45191;-73
2021/12/21 04:08:28;;;;;;;3.65;2.08;;;16.40;42.30;;;;;;5090381;27;45475;-73
2021/12/21 04:10:55;;;;;;;3.40;2.22;;;16.40;41.70;;;;;;5093050;27;46440;-73
2021/12/21 04:13:22;;;;;;;2.70;1.75;;;16.30;41.10;;;;;;5103705;27;45331;-73
2021/12/21 04:15:53;;;;;;;3.30;2.15;;;16.40;40.90;;;;;;5095489;27;45344;-73
2021/12/21 04:18:22;;;;;;;3.15;2.20;;;16.40;40.90;;;;;;5107623;27;45233;-73
2021/12/21 04:20:50;;;;;;;4.53;2.50;;;16.30;40.70;;;;;;5087606;27;45567;-73
2021/12/21 04:23:18;;;;;;;4.00;2.35;;;16.30;40.80;;;;;;5097977;27;45513;-73
2021/12/21 04:25:44;;;;;;;5.80;2.30;;;16.40;41.50;;;;;;5107970;27;45192;-73
2021/12/21 04:28:12;;;;;;;3.22;1.83;;;16.30;41.00;;;;;;5088504;27;45388;-73
2021/12/21 04:30:39;;;;;;;4.60;2.08;;;16.40;41.40;;;;;;5091577;27;45296;-73
2021/12/21 04:33:07;;;;;;;2.67;1.90;;;16.30;41.70;;;;;;5088675;27;45284;-73
2021/12/21 04:35:34;;;;;;;4.88;2.40;;;16.30;41.70;;;;;;5092649;27;45449;-73
2021/12/21 04:38:13;;;;;;;3.58;2.03;;;16.30;41.90;;;;;;5103928;27;45304;-73
2021/12/21 04:40:43;;;;;;;3.70;2.05;;;16.40;41.20;;;;;;5106484;27;45364;-73
2021/12/21 04:43:10;;;;;;;3.58;1.83;;;16.30;42.20;;;;;;5094898;27;45100;-73
2021/12/21 04:45:37;;;;;;;3.80;2.10;;;16.40;41.50;;;;;;5102062;27;45476;-73
2021/12/21 04:48:04;;;;;;;3.72;2.10;;;16.30;42.20;;;;;;5102927;27;47236;-73
2021/12/21 04:50:33;;;;;;;3.35;2.10;;;16.30;41.00;;;;;;5087237;27;45414;-73
2021/12/21 04:53:00;;;;;;;3.80;2.30;;;16.30;42.00;;;;;;5090234;27;45173;-73
2021/12/21 04:55:27;;;;;;;3.65;2.22;;;16.30;43.60;;;;;;5088322;28;45284;-73
2021/12/21 04:57:54;;;;;;;3.63;2.25;;;16.30;42.70;;;;;;5093970;27;45978;-73
2021/12/21 05:00:21;;;;;;;5.95;2.58;;;16.30;42.10;;;;;;5089131;27;45150;-73
2021/12/21 05:02:47;;;;;;;3.83;2.50;;;16.30;43.10;;;;;;5090491;27;45159;-73
2021/12/21 05:05:15;;;;;;;4.25;2.25;;;16.40;42.40;;;;;;5096043;27;45406;-73
2021/12/21 05:07:47;;;;;;;4.07;2.40;;;16.30;41.40;;;;;;5105236;27;45656;-73
2021/12/21 05:10:14;;;;;;;4.68;2.42;;;16.30;41.80;;;;;;5086713;27;45175;-73
2021/12/21 05:12:42;;;;;;;4.90;2.55;;;16.30;41.80;;;;;;5081384;27;45287;-73
2021/12/21 05:17:48;;;;;;;5.05;2.50;;;16.30;41.90;;;;;;5212486;22;45995;-71
2021/12/21 05:20:15;;;;;;;4.18;2.60;;;16.30;41.70;;;;;;5064649;28;45529;-71
2021/12/21 05:22:43;;;;;;;5.00;2.28;;;16.30;41.70;;;;;;5073929;28;45298;-72
2021/12/21 05:25:11;;;;;;;3.53;2.20;;;16.30;40.70;;;;;;5066275;28;45532;-72
2021/12/21 05:27:38;;;;;;;3.47;2.35;;;16.30;40.90;;;;;;5067017;28;45684;-72
2021/12/21 05:30:05;;;;;;;3.80;2.53;;;16.30;40.90;;;;;;5068706;28;45218;-72
2021/12/21 05:32:32;;;;;;;3.25;2.17;;;16.30;40.90;;;;;;5071479;28;45553;-71
2021/12/21 05:34:59;;;;;;;4.68;2.50;;;16.30;40.90;;;;;;5078789;28;45541;-72
2021/12/21 05:37:26;;;;;;;5.00;2.40;;;16.30;40.70;;;;;;5070801;28;47027;-72
2021/12/21 05:39:58;;;;;;;3.25;2.30;;;16.30;40.40;;;;;;5085441;28;45379;-72
2021/12/21 05:42:25;;;;;;;4.50;2.47;;;16.30;40.30;;;;;;5067016;28;45346;-72
2021/12/21 05:44:52;;;;;;;5.47;2.60;;;16.30;40.10;;;;;;5071655;28;45350;-72
2021/12/21 05:47:20;;;;;;;4.25;2.45;;;16.30;40.90;;;;;;5066433;28;45373;-72
2021/12/21 05:49:46;;;;;;;4.30;2.28;;;16.30;41.40;;;;;;5066966;28;45380;-72
2021/12/21 05:52:13;;;;;;;4.97;2.20;;;16.30;41.80;;;;;;5073283;28;45265;-72
2021/12/21 05:54:40;;;;;;;5.82;2.50;;;16.40;42.00;;;;;;5066627;28;45215;-72
2021/12/21 05:57:08;;;;;;;5.13;2.80;;;16.40;41.10;;;;;;5074046;28;45364;-71
2021/12/21 05:59:35;;;;;;;4.20;2.47;;;16.40;40.70;;;;;;5072948;28;45138;-71
2021/12/21 06:02:02;;;;;;;5.07;2.40;;;16.40;40.70;;;;;;5075458;28;45210;-71
2021/12/21 06:04:29;;;;;;;4.03;2.17;;;16.40;41.30;;;;;;5079092;27;45175;-71
2021/12/21 06:06:55;;;;;;;6.20;2.40;;;16.40;41.90;;;;;;5082016;27;47266;-71
2021/12/21 06:09:22;;;;;;;4.43;2.33;;;16.50;42.30;;;;;;5075315;28;45391;-72
2021/12/21 06:12:01;;;;;;;4.28;2.30;;;16.50;42.70;;;;;;5079130;28;45247;-72
2021/12/21 06:22:52;;;;;;;4.25;2.42;;;16.40;42.40;;;;;;5082715;28;45157;-72
2021/12/21 06:25:35;;;;;;;5.60;2.75;;;16.40;43.00;;;;;;5086496;28;45371;-72
2021/12/21 06:28:02;;;;;;;4.35;2.60;;;16.40;43.20;;;;;;5082587;28;46309;-72
2021/12/21 06:30:31;;;;;;;5.25;3.00;;;16.40;43.40;;;;;;5085783;28;45277;-72
2021/12/21 06:32:58;;;;;;;5.20;2.42;;;16.40;43.60;;;;;;5089528;28;45245;-72
2021/12/21 06:35:25;;;;;;;4.57;2.80;;;16.50;43.70;;;;;;5084864;28;45350;-73
2021/12/21 06:37:53;;;;;;;3.92;2.72;;;16.50;43.90;;;;;;5087926;28;45513;-72
2021/12/21 06:40:21;;;;;;;4.60;2.80;;;16.50;43.90;;;;;;5074867;28;45303;-72
2021/12/21 06:42:50;;;;;;;5.65;2.95;;;16.50;44.30;;;;;;5082953;28;45278;-72
2021/12/21 06:45:29;;;;;;;4.57;2.70;;;16.50;44.10;;;;;;5082163;28;45508;-72
2021/12/21 06:53:27;;;;;;;6.20;3.15;;;16.50;43.70;;;;;;5082532;28;45315;-72
2021/12/21 06:55:54;;;;;;;4.72;2.78;;;16.50;43.00;;;;;;5078369;28;45342;-71
2021/12/21 06:58:21;;;;;;;6.93;3.35;;;16.50;42.80;;;;;;5083544;28;47044;-72
2021/12/21 07:00:49;;;;;;;5.78;3.00;;;16.50;42.80;;;;;;5084218;28;45481;-72
2021/12/21 07:03:18;;;;;;;6.93;3.72;;;16.50;42.20;;;;;;5086355;28;45563;-72
2021/12/21 07:05:46;;;;;;;6.05;3.20;;;16.40;41.50;;;;;;5078129;28;45145;-72
2021/12/21 07:08:16;;;;;;;6.00;3.55;;;16.40;41.30;;;;;;5087206;28;47077;-72
2021/12/21 07:10:52;;;;;;;7.00;3.20;;;16.40;41.10;;;;;;5073367;28;45289;-72
2021/12/21 07:18:50;;;;;;;5.50;3.33;;;16.40;42.10;;;;;;5069947;28;45765;-72
2021/12/21 07:21:16;;;;;;;6.05;3.20;;;16.40;41.90;;;;;;5072105;28;45423;-72
2021/12/21 07:23:43;;;;;;;6.30;3.45;;;16.40;41.90;;;;;;5068124;28;45143;-72
2021/12/21 07:26:10;;;;;;;5.05;3.08;;;16.40;40.80;;;;;;5073367;28;45164;-72
2021/12/21 07:28:37;;;;;;;4.95;3.15;;;16.40;41.40;;;;;;5068813;28;48021;-72
2021/12/21 07:31:04;;;;;;;5.15;3.03;;;16.40;40.80;;;;;;5067934;28;45395;-72
2021/12/21 07:33:31;;;;;;;5.57;3.42;;;16.30;40.60;;;;;;5067832;28;45548;-72
2021/12/21 07:36:00;;;;;;;5.13;3.35;;;16.40;40.60;;;;;;5072067;28;45396;-71
2021/12/21 07:38:30;;;;;;;6.57;3.53;;;16.40;40.70;;;;;;5083899;27;46600;-72
2021/12/21 07:40:58;;;;;;;7.00;3.45;;;16.30;40.40;;;;;;5083028;28;45287;-72
2021/12/21 07:43:25;;;;;;;6.70;3.47;;;16.40;40.50;;;;;;5076431;28;45307;-73
2021/12/21 07:45:52;;;;;;;6.10;3.38;;;16.40;40.40;;;;;;5074825;28;45417;-72
2021/12/21 07:48:20;;;;;;;3.65;2.80;;;16.40;40.10;;;;;;5073222;28;45711;-73
2021/12/21 07:50:48;;;;;;;4.70;2.80;;;16.40;41.00;;;;;;5073089;28;45344;-72
2021/12/21 07:53:17;;;;;;;4.20;2.58;;;16.40;42.00;;;;;;5094999;27;45346;-72
2021/12/21 07:55:44;;;;;;;6.13;2.95;;;16.40;42.30;;;;;;5079782;28;45279;-72
2021/12/21 07:58:12;;;;;;;5.63;3.08;;;16.50;42.70;;;;;;5075455;28;46588;-72
2021/12/21 08:00:40;;;;;;;6.05;3.42;;;16.40;41.60;;;;;;5077001;28;45543;-72
2021/12/21 08:03:07;;;;;;;4.68;3.03;;;16.40;41.20;;;;;;5067816;28;45519;-72
2021/12/21 08:05:35;;;;;;;7.07;3.65;;;16.40;41.00;;;;;;5077561;28;45226;-72
2021/12/21 08:08:11;;;;;;;7.40;3.85;;;16.40;40.70;;;;;;5082939;28;46412;-72
2021/12/21 08:10:45;;;;;;;5.05;3.70;;;16.40;40.40;;;;;;5081989;28;45389;-72
2021/12/21 08:13:13;;;;;;;5.28;3.40;;;16.40;40.90;;;;;;5077098;28;45420;-72
2021/12/21 08:15:40;;;;;;;5.70;3.85;;;16.40;44.10;;;;;;5077414;28;45612;-72
2021/12/21 08:18:07;;;;;;;8.52;3.90;;;16.40;40.60;;;;;;5074311;28;46599;-72
2021/12/21 08:20:35;;;;;;;5.47;3.83;;;16.40;40.70;;;;;;5077922;28;45491;-72
2021/12/21 08:23:02;;;;;;;5.80;3.80;;;16.40;41.60;;;;;;5084931;28;45388;-71
2021/12/21 08:25:29;;;;;;;7.72;4.00;;;16.40;40.30;;;;;;5079625;28;45303;-72
2021/12/21 08:27:59;;;;;;;8.63;5.03;;;16.40;40.00;;;;;;5086184;28;48271;-72
2021/12/21 08:30:27;;;;;;;10.60;4.80;;;16.40;40.00;;;;;;5085509;28;45512;-72
2021/12/21 08:32:54;;;;;;;9.70;4.63;;;16.40;39.90;;;;;;5085471;28;45205;-72
2021/12/21 08:35:21;;;;;;;8.77;4.60;;;16.40;39.90;;;;;;5086290;28;45332;-72
2021/12/21 08:37:52;;;;;;;9.02;4.55;;;16.30;39.90;;;;;;5087815;28;45461;-72
2021/12/21 08:40:20;;;;;;;9.80;4.80;;;16.30;39.90;;;;;;5082269;28;45297;-72
2021/12/21 08:42:48;;;;;;;8.48;4.53;;;16.30;40.00;;;;;;5089243;27;45184;-72
2021/12/21 08:45:17;;;;;;;7.47;4.10;;;16.30;40.70;;;;;;5084815;28;45348;-72
2021/12/21 08:47:44;;;;;;;7.03;3.97;;;16.30;40.80;;;;;;5083552;28;47383;-71
2021/12/21 08:50:14;;;;;;;7.97;4.25;;;16.40;40.80;;;;;;5082583;28;45389;-71
2021/12/21 08:52:41;;;;;;;7.50;4.28;;;16.40;40.20;;;;;;5072563;28;45250;-71
2021/12/21 08:55:10;;;;;;;7.57;4.18;;;16.40;40.30;;;;;;5084191;28;45105;-72
2021/12/21 08:57:37;;;;;;;7.22;3.40;;;16.40;40.30;;;;;;5078153;28;48468;-72
2021/12/21 09:00:06;;;;;;;6.68;3.40;;;16.40;41.20;;;;;;5073337;28;45316;-72
2021/12/21 09:02:36;;;;;;;6.15;3.50;;;16.30;41.90;;;;;;5071949;28;45267;-72
2021/12/21 09:05:07;;;;;;;6.07;3.55;;;16.30;42.40;;;;;;5082299;28;45639;-72
2021/12/21 09:07:34;;;;;;;5.15;3.50;;;16.40;42.90;;;;;;5076853;28;45666;-72
2021/12/21 09:10:01;;;;;;;6.53;3.55;;;16.40;41.90;;;;;;5071439;28;45196;-72
2021/12/21 09:12:28;;;;;;;5.70;3.40;;;16.40;41.50;;;;;;5081840;28;45215;-72
2021/12/21 09:14:55;;;;;;;6.72;3.30;;;16.40;41.30;;;;;;5078745;28;45294;-72
2021/12/21 09:17:22;;;;;;;6.13;3.40;;;16.40;42.20;;;;;;5083832;28;45346;-71
2021/12/21 09:19:50;;;;;;;5.93;3.67;;;16.40;41.50;;;;;;5087651;28;45251;-71
2021/12/21 09:22:17;;;;;;;4.72;2.92;;;16.40;41.30;;;;;;5084321;28;45229;-72
2021/12/21 09:24:44;;;;;;;5.28;2.90;;;16.30;42.10;;;;;;5078687;28;45239;-71
2021/12/21 09:27:12;;;;;;;4.97;2.88;;;16.30;40.70;;;;;;5084844;28;48300;-71
2021/12/21 09:29:39;;;;;;;5.90;3.25;;;16.30;40.70;;;;;;5085452;28;45143;-71
2021/12/21 09:32:07;;;;;;;5.50;3.05;;;16.30;40.80;;;;;;5072952;28;45215;-71
2021/12/21 09:34:35;;;;;;;5.57;2.90;;;16.20;40.60;;;;;;5068215;27;45227;-71
2021/12/21 09:37:04;;;;;;;5.03;3.13;;;16.30;40.60;;;;;;5080113;27;45260;-71
2021/12/21 09:39:31;;;;;;;5.57;2.78;;;16.30;41.60;;;;;;5079875;27;45635;-71
2021/12/21 09:41:58;;;;;;;5.25;2.70;;;16.30;40.70;;;;;;5091102;28;45334;-71
2021/12/21 09:44:25;;;;;;;6.43;3.35;;;16.30;41.10;;;;;;5085571;28;45257;-71
2021/12/21 09:46:52;;;;;;;5.20;3.00;;;16.30;40.90;;;;;;5080365;27;46400;-71
2021/12/21 09:49:19;;;;;;;5.35;2.92;;;16.30;40.50;;;;;;5077750;28;45223;-71
2021/12/21 09:51:46;;;;;;;4.68;2.65;;;16.30;40.50;;;;;;5087782;28;45703;-71
2021/12/21 09:54:18;;;;;;;4.43;2.90;;;16.30;40.30;;;;;;5086342;27;45492;-71
2021/12/21 09:56:45;;;;;;;3.47;2.35;;;16.30;40.50;;;;;;5086065;28;45496;-71
2021/12/21 09:59:12;;;;;;;4.25;2.63;;;16.30;40.80;;;;;;5084458;28;45250;-71
2021/12/21 10:01:39;;;;;;;5.00;2.90;;;16.30;41.00;;;;;;5075917;28;46162;-71
2021/12/21 10:04:06;;;;;;;4.97;2.50;;;16.30;40.70;;;;;;5070053;28;45508;-71
2021/12/21 10:06:43;;;;;;;4.85;2.75;;;16.30;40.80;;;;;;5074626;28;47139;-71
2021/12/21 10:09:10;;;;;;;3.75;2.30;;;16.30;41.40;;;;;;5089225;28;45235;-71
2021/12/21 10:11:44;;;;;;;5.35;2.75;;;16.30;40.70;;;;;;5085022;28;45103;-71
2021/12/21 10:14:12;;;;;;;4.60;2.63;;;16.30;40.50;;;;;;5086009;28;45221;-71
2021/12/21 10:16:39;;;;;;;4.00;2.45;;;16.30;41.40;;;;;;5085198;27;45275;-71
2021/12/21 10:19:06;;;;;;;3.85;2.50;;;16.30;40.30;;;;;;5090665;28;45217;-71
2021/12/21 10:21:44;;;;;;;4.63;2.53;;;16.30;40.30;;;;;;5090914;28;45495;-71
2021/12/21 10:24:11;;;;;;;4.45;2.42;;;16.30;40.70;;;;;;5090231;28;45260;-71
2021/12/21 10:26:38;;;;;;;2.78;2.00;;;16.30;40.90;;;;;;5070411;28;48262;-71
2021/12/21 10:29:09;;;;;;;3.65;2.60;;;16.30;40.60;;;;;;5069968;28;45287;-71
2021/12/21 10:31:39;;;;;;;3.63;2.38;;;16.30;41.00;;;;;;5079323;28;45144;-71
2021/12/21 10:34:11;;;;;;;4.30;2.40;;;16.30;40.80;;;;;;5070364;28;45223;-71
2021/12/21 10:36:42;;;;;;;4.25;2.25;;;16.30;40.50;;;;;;5086248;28;45490;-71
2021/12/21 10:39:09;;;;;;;4.85;2.40;;;16.30;40.30;;;;;;5088846;28;45225;-71
2021/12/21 10:41:39;;;;;;;5.85;2.63;;;16.30;40.30;;;;;;5080687;28;45322;-71
2021/12/21 10:44:10;;;;;;;3.97;2.40;;;16.30;40.30;;;;;;5081730;28;45255;-71
2021/12/21 10:46:38;;;;;;;4.43;2.42;;;16.30;40.40;;;;;;5081258;28;45325;-71
2021/12/21 10:49:08;;;;;;;3.33;2.13;;;16.30;40.80;;;;;;5078719;28;45463;-71
2021/12/21 10:51:35;;;;;;;3.63;2.33;;;16.30;40.60;;;;;;5069362;28;45491;-71
2021/12/21 10:54:02;;;;;;;3.53;2.50;;;16.30;41.90;;;;;;5071017;28;45675;-71
2021/12/21 10:56:28;;;;;;;4.35;2.50;;;16.30;40.70;;;;;;5080752;28;46181;-71
2021/12/21 10:58:55;;;;;;;4.53;2.65;;;16.30;41.10;;;;;;5081557;28;45235;-71
2021/12/21 11:01:27;;;;;;;4.60;2.70;;;16.40;40.80;;;;;;5072005;28;45252;-71
2021/12/21 11:03:56;;;;;;;4.25;2.45;;;16.40;40.50;;;;;;5081340;28;45354;-71
2021/12/21 11:06:26;;;;;;;3.78;2.40;;;16.40;40.50;;;;;;5071229;28;45565;-71
2021/12/21 11:08:55;;;;;;;3.25;2.03;;;16.30;40.40;;;;;;5078100;27;45334;-71
2021/12/21 11:11:29;;;;;;;3.22;2.08;;;16.30;41.70;;;;;;5079934;28;45665;-71
2021/12/21 11:14:00;;;;;;;4.35;2.30;;;16.30;41.70;;;;;;5078530;28;45553;-71
2021/12/21 11:16:37;;;;;;;2.90;2.35;;;16.40;41.00;;;;;;5078045;28;47092;-71
2021/12/21 11:19:04;;;;;;;2.28;1.67;;;16.40;40.60;;;;;;5082735;28;45281;-71
2021/12/21 11:21:32;;;;;;;2.95;2.00;;;16.40;40.70;;;;;;5078331;28;45366;-71
2021/12/21 11:24:01;;;;;;;2.35;1.65;;;16.40;40.80;;;;;;5086539;27;45425;-72
2021/12/21 11:26:29;;;;;;;2.60;1.83;;;16.40;40.40;;;;;;5076880;27;45982;-72
2021/12/21 11:28:56;;;;;;;3.70;1.73;;;16.40;40.50;;;;;;5080071;28;45391;-72
2021/12/21 11:31:24;;;;;;;3.30;2.03;;;16.40;40.30;;;;;;5072874;28;45236;-72
2021/12/21 11:33:57;;;;;;;3.90;1.65;;;16.40;40.50;;;;;;5080389;28;45291;-72
2021/12/21 11:39:08;;;;;;;4.50;1.90;;;16.30;40.50;;;;;;5077978;28;45287;-71
2021/12/21 11:41:37;;;;;;;2.33;1.60;;;16.40;40.30;;;;;;5074269;28;45272;-72
2021/12/21 11:44:12;;;;;;;3.03;1.98;;;16.40;40.40;;;;;;5084035;28;45310;-72
2021/12/21 11:46:51;;;;;;;2.60;1.63;;;16.40;41.10;;;;;;5073223;28;46214;-72
2021/12/21 11:49:27;;;;;;;2.20;1.58;;;16.40;40.20;;;;;;5086352;28;45206;-72
2021/12/21 11:52:06;;;;;;;3.75;1.60;;;16.40;40.30;;;;;;5071050;28;45255;-72
2021/12/21 11:54:44;;;;;;;2.72;1.63;;;16.40;40.20;;;;;;5073188;28;45524;-72
2021/12/21 11:57:11;;;;;;;1.80;1.27;;;16.30;40.10;;;;;;5075318;27;45293;-72
2021/12/21 11:59:38;;;;;;;2.15;1.30;;;16.40;40.30;;;;;;5081362;27;45465;-72
2021/12/21 12:02:07;;;;;;;1.98;1.50;;;16.30;40.30;;;;;;5076040;27;45535;-72
2021/12/21 12:04:35;;;;;;;2.58;1.40;;;16.30;40.60;;;;;;5069901;28;45282;-72
2021/12/21 12:07:15;;;;;;;3.22;1.50;;;16.40;40.40;;;;;;5074581;27;47897;-71
2021/12/21 12:09:42;;;;;;;2.25;1.30;;;16.40;40.50;;;;;;5070789;28;45742;-71
2021/12/21 12:12:12;;;;;;;2.63;1.75;;;16.40;40.20;;;;;;5078797;28;45186;-72
2021/12/21 12:14:39;;;;;;;2.05;1.48;;;16.30;40.20;;;;;;5078565;28;46574;-72
2021/12/21 12:17:13;;;;;;;2.15;1.42;;;16.40;40.30;;;;;;5078923;28;46329;-72
2021/12/21 12:19:43;;;;;;;2.28;1.50;;;16.40;40.90;;;;;;5083366;28;45613;-71
2021/12/21 12:22:14;;;;;;;2.20;1.48;;;16.30;40.50;;;;;;5079850;28;45319;-71
2021/12/21 12:24:44;;;;;;;1.92;1.30;;;16.30;41.50;;;;;;5074419;28;45963;-71
2021/12/21 12:27:14;;;;;;;2.05;1.40;;;16.40;41.10;;;;;;5076124;28;46189;-71
2021/12/21 12:29:51;;;;;;;1.58;1.25;;;16.40;41.70;;;;;;5075960;28;45390;-72
2021/12/21 12:32:19;;;;;;;3.63;1.40;;;16.40;41.20;;;;;;5082542;28;45203;-72
2021/12/21 12:34:47;;;;;;;2.95;1.40;;;16.40;41.50;;;;;;5086596;28;45316;-72
2021/12/21 12:37:18;;;;;;;2.00;1.33;;;16.40;40.80;;;;;;5088763;28;45394;-72
2021/12/21 12:39:46;;;;;;;2.53;1.42;;;16.40;40.60;;;;;;5072195;28;45409;-72
2021/12/21 12:42:18;;;;;;;1.80;1.23;;;16.40;40.60;;;;;;5071483;28;45192;-72
2021/12/21 12:44:46;;;;;;;1.65;1.27;;;16.40;40.70;;;;;;5069816;28;45141;-72
2021/12/21 12:47:15;;;;;;;3.05;1.60;;;16.40;40.60;;;;;;5077258;28;45574;-72
2021/12/21 12:49:49;;;;;;;3.58;1.40;;;16.40;40.60;;;;;;5068119;28;45603;-71
2021/12/21 12:52:20;;;;;;;2.85;1.60;;;16.40;40.90;;;;;;5107317;27;45214;-71
2021/12/21 12:54:51;;;;;;;2.05;1.25;;;16.40;41.30;;;;;;5068616;28;45256;-71
2021/12/21 12:57:30;;;;;;;3.88;1.30;;;16.40;41.40;;;;;;5072026;28;46302;-71
2021/12/21 12:59:59;;;;;;;3.75;1.30;;;16.40;41.30;;;;;;5074038;28;45232;-71
2021/12/21 13:02:27;;;;;;;2.38;1.55;;;16.40;40.60;;;;;;5070905;28;45366;-71
2021/12/21 13:04:54;;;;;;;3.15;1.50;;;16.40;40.50;;;;;;5074573;28;45649;-71
2021/12/21 13:07:28;;;;;;;2.90;1.38;;;16.40;40.50;;;;;;5078564;28;46465;-71
2021/12/21 13:10:05;;;;;;;3.38;1.42;;;16.40;40.60;;;;;;5067849;28;45364;-71
2021/12/21 13:12:32;;;;;;;2.15;1.30;;;16.40;40.50;;;;;;5072507;28;45649;-71
2021/12/21 13:14:59;;;;;;;1.80;1.30;;;16.40;40.60;;;;;;5071173;28;45268;-71
2021/12/21 13:17:26;;;;;;;2.38;1.60;;;16.40;40.60;;;;;;5069522;28;46663;-71
2021/12/21 13:19:53;;;;;;;2.35;1.35;;;16.40;40.80;;;;;;5073786;28;45439;-71
2021/12/21 13:22:24;;;;;;;1.30;0.93;;;16.40;40.70;;;;;;5075549;28;45453;-72
2021/12/21 13:24:52;;;;;;;2.65;1.40;;;16.40;40.50;;;;;;5067301;28;45185;-71
2021/12/21 13:27:21;;;;;;;3.20;1.30;;;16.40;40.20;;;;;;5067477;28;47012;-71
2021/12/21 13:29:49;;;;;;;2.05;1.30;;;16.40;40.10;;;;;;5067469;28;45372;-71
2021/12/21 13:32:18;;;;;;;1.70;1.13;;;16.40;40.20;;;;;;5074315;28;45375;-71
2021/12/21 13:34:47;;;;;;;2.15;1.25;;;16.40;40.30;;;;;;5072918;28;45342;-71
2021/12/21 13:37:18;;;;;;;3.15;1.45;;;16.40;40.40;;;;;;5066872;28;46184;-72
2021/12/21 13:39:47;;;;;;;1.83;1.17;;;16.40;40.10;;;;;;5067206;28;46539;-72
2021/12/21 13:42:18;;;;;;;5.45;1.70;;;16.50;40.20;;;;;;5083428;28;45300;-72
2021/12/21 13:44:48;;;;;;;2.55;1.60;;;16.50;40.10;;;;;;5075507;28;45274;-72
2021/12/21 13:47:21;;;;;;;3.05;1.38;;;16.50;40.20;;;;;;5066983;28;45818;-72